createdAt,value
2018-02-01T00:00:16.434Z,4.13
2018-02-01T00:01:15.908Z,4.12
2018-02-01T00:02:16.377Z,4.12
2018-02-01T00:03:16.346Z,4.04
2018-02-01T00:04:16.323Z,4.01
2018-02-01T00:05:16.293Z,3.94
2018-02-01T00:06:16.263Z,3.94
2018-02-01T00:07:16.231Z,3.92
2018-02-01T00:08:15.955Z,4.02
2018-02-01T00:09:16.171Z,3.96
2018-02-01T00:10:16.146Z,3.95
2018-02-01T00:11:16.115Z,3.86
2018-02-01T00:12:15.836Z,3.83
2018-02-01T00:13:15.811Z,3.78
2018-02-01T00:14:15.779Z,3.94
2018-02-01T00:15:15.994Z,3.78
2018-02-01T00:16:15.723Z,3.74
2018-02-01T00:17:15.939Z,3.78
2018-02-01T00:18:15.662Z,3.84
2018-02-01T00:19:15.876Z,3.8
2018-02-01T00:20:15.853Z,3.81
2018-02-01T00:21:15.819Z,3.68
2018-02-01T00:22:15.791Z,3.76
2018-02-01T00:23:15.764Z,3.7
2018-02-01T00:24:15.735Z,3.73
2018-02-01T00:25:15.706Z,3.65
2018-02-01T00:26:15.184Z,3.63
2018-02-01T00:27:15.645Z,3.63
2018-02-01T00:28:15.372Z,3.7
2018-02-01T00:29:15.343Z,3.63
2018-02-01T00:30:15.560Z,3.6
2018-02-01T00:31:15.532Z,3.68
2018-02-01T00:32:15.250Z,3.63
2018-02-01T00:33:15.271Z,3.6
2018-02-01T00:34:15.439Z,3.62
2018-02-01T00:35:15.413Z,3.63
2018-02-01T00:36:15.131Z,3.56
2018-02-01T00:37:15.349Z,3.51
2018-02-01T00:38:15.422Z,3.5
2018-02-01T00:39:15.284Z,3.53
2018-02-01T00:40:15.010Z,3.55
2018-02-01T00:41:15.228Z,3.55
2018-02-01T00:42:14.994Z,3.58
2018-02-01T00:43:15.165Z,3.56
2018-02-01T00:44:14.895Z,3.51
2018-02-01T00:45:14.860Z,3.42
2018-02-01T00:46:14.831Z,3.55
2018-02-01T00:47:15.051Z,3.5
2018-02-01T00:48:15.015Z,3.51
2018-02-01T00:49:14.743Z,3.45
2018-02-01T00:50:14.712Z,3.5
2018-02-01T00:51:14.931Z,3.48
2018-02-01T00:52:14.898Z,3.53
2018-02-01T00:53:14.871Z,3.48
2018-02-01T00:54:14.840Z,3.45
2018-02-01T00:55:14.812Z,3.42
2018-02-01T00:56:14.781Z,3.34
2018-02-01T00:57:14.512Z,3.4
2018-02-01T00:58:14.721Z,3.4
2018-02-01T00:59:14.443Z,3.4
2018-02-01T01:00:14.415Z,3.36
2018-02-01T01:01:14.387Z,3.32
2018-02-01T01:02:14.601Z,3.41
2018-02-01T01:03:14.572Z,3.29
2018-02-01T01:04:14.298Z,3.28
2018-02-01T01:05:14.270Z,3.32
2018-02-01T01:06:14.482Z,3.34
2018-02-01T01:07:14.450Z,3.34
2018-02-01T01:08:14.177Z,3.21
2018-02-01T01:09:14.392Z,3.21
2018-02-01T01:10:14.370Z,3.28
2018-02-01T01:11:14.335Z,3.13
2018-02-01T01:12:14.064Z,3.13
2018-02-01T01:13:13.783Z,3.28
2018-02-01T01:14:14.044Z,3.14
2018-02-01T01:15:14.217Z,3.14
2018-02-01T01:16:13.946Z,3.14
2018-02-01T01:17:13.911Z,3.23
2018-02-01T01:18:14.127Z,3.13
2018-02-01T01:19:14.203Z,3.18
2018-02-01T01:20:14.066Z,3.13
2018-02-01T01:21:14.036Z,3.18
2018-02-01T01:22:14.011Z,3.14
2018-02-01T01:23:13.977Z,3.14
2018-02-01T01:24:13.946Z,3.21
2018-02-01T01:25:13.915Z,3.18
2018-02-01T01:26:13.890Z,3.18
2018-02-01T01:27:13.853Z,3.21
2018-02-01T01:28:13.831Z,3.1
2018-02-01T01:29:13.799Z,3.19
2018-02-01T01:30:13.523Z,3.25
2018-02-01T01:31:13.738Z,3.18
2018-02-01T01:32:13.710Z,3.18
2018-02-01T01:33:13.432Z,3.18
2018-02-01T01:34:13.648Z,3.21
2018-02-01T01:35:13.670Z,3.21
2018-02-01T01:36:13.591Z,3.18
2018-02-01T01:37:13.556Z,3.14
2018-02-01T01:38:13.283Z,3.11
2018-02-01T01:39:13.251Z,3.18
2018-02-01T01:40:13.468Z,3.23
2018-02-01T01:41:13.436Z,3.22
2018-02-01T01:42:13.412Z,3.21
2018-02-01T01:43:13.377Z,3.1
2018-02-01T01:44:13.100Z,3.21
2018-02-01T01:45:13.324Z,3.21
2018-02-01T01:46:13.038Z,3.21
2018-02-01T01:47:12.765Z,3.18
2018-02-01T01:48:13.230Z,3.16
2018-02-01T01:49:12.708Z,3.16
2018-02-01T01:50:12.919Z,3.19
2018-02-01T01:51:12.891Z,3.16
2018-02-01T01:52:13.106Z,3.18
2018-02-01T01:53:12.832Z,3.18
2018-02-01T01:54:13.049Z,3.13
2018-02-01T01:55:12.773Z,3.19
2018-02-01T01:56:12.751Z,3.19
2018-02-01T01:57:13.012Z,3.13
2018-02-01T01:58:12.937Z,3.16
2018-02-01T01:59:12.910Z,3.08
2018-02-01T02:00:12.876Z,3.19
2018-02-01T02:01:12.594Z,3.13
2018-02-01T02:02:12.810Z,3.14
2018-02-01T02:03:12.782Z,3.22
2018-02-01T02:04:12.747Z,3.21
2018-02-01T02:05:12.725Z,3.36
2018-02-01T02:06:12.737Z,3.37
2018-02-01T02:07:12.657Z,3.29
2018-02-01T02:08:12.381Z,3.23
2018-02-01T02:09:12.596Z,3.29
2018-02-01T02:10:12.570Z,3.37
2018-02-01T02:11:12.295Z,3.32
2018-02-01T02:12:12.510Z,3.31
2018-02-01T02:13:12.477Z,3.28
2018-02-01T02:14:12.457Z,3.31
2018-02-01T02:15:12.200Z,3.34
2018-02-01T02:16:12.385Z,3.22
2018-02-01T02:17:12.116Z,3.22
2018-02-01T02:18:12.329Z,3.21
2018-02-01T02:19:12.297Z,3.13
2018-02-01T02:20:12.271Z,3.22
2018-02-01T02:21:11.999Z,3.22
2018-02-01T02:22:12.212Z,3.28
2018-02-01T02:23:12.179Z,3.18
2018-02-01T02:24:11.657Z,3.23
2018-02-01T02:25:12.118Z,3.21
2018-02-01T02:26:12.090Z,3.14
2018-02-01T02:27:12.056Z,3.18
2018-02-01T02:28:11.783Z,3.18
2018-02-01T02:29:11.997Z,3.22
2018-02-01T02:30:11.986Z,3.13
2018-02-01T02:31:11.942Z,3.16
2018-02-01T02:32:11.907Z,3.19
2018-02-01T02:33:11.893Z,3.16
2018-02-01T02:34:11.849Z,3.14
2018-02-01T02:35:11.822Z,3.14
2018-02-01T02:36:11.794Z,3.1
2018-02-01T02:37:11.761Z,3.08
2018-02-01T02:38:11.737Z,3
2018-02-01T02:39:11.701Z,3.03
2018-02-01T02:40:11.672Z,3.03
2018-02-01T02:41:11.394Z,3.07
2018-02-01T02:42:11.611Z,3.05
2018-02-01T02:43:11.582Z,3.01
2018-02-01T02:44:11.551Z,2.93
2018-02-01T02:45:11.538Z,2.92
2018-02-01T02:46:11.248Z,2.98
2018-02-01T02:47:11.219Z,2.97
2018-02-01T02:48:11.436Z,2.98
2018-02-01T02:49:11.400Z,2.9
2018-02-01T02:50:11.379Z,3
2018-02-01T02:51:11.343Z,2.97
2018-02-01T02:52:11.070Z,3
2018-02-01T02:53:11.284Z,2.9
2018-02-01T02:54:11.253Z,2.98
2018-02-01T02:55:11.315Z,2.95
2018-02-01T02:56:11.193Z,3
2018-02-01T02:57:11.163Z,3.04
2018-02-01T02:58:11.129Z,2.92
2018-02-01T02:59:10.855Z,2.92
2018-02-01T03:00:11.032Z,2.93
2018-02-01T03:01:10.803Z,2.95
2018-02-01T03:02:10.765Z,3
2018-02-01T03:03:10.978Z,3.03
2018-02-01T03:04:10.704Z,3.04
2018-02-01T03:05:10.925Z,3
2018-02-01T03:06:10.640Z,2.93
2018-02-01T03:07:10.609Z,3
2018-02-01T03:08:10.836Z,2.97
2018-02-01T03:09:10.550Z,2.9
2018-02-01T03:10:10.273Z,2.97
2018-02-01T03:11:10.246Z,2.92
2018-02-01T03:12:10.459Z,2.85
2018-02-01T03:13:10.429Z,2.97
2018-02-01T03:14:10.652Z,2.77
2018-02-01T03:15:10.377Z,2.87
2018-02-01T03:16:10.595Z,2.9
2018-02-01T03:17:10.308Z,2.87
2018-02-01T03:18:10.277Z,2.92
2018-02-01T03:19:10.249Z,2.87
2018-02-01T03:20:10.465Z,2.89
2018-02-01T03:21:10.433Z,2.87
2018-02-01T03:22:10.161Z,2.89
2018-02-01T03:23:10.132Z,2.86
2018-02-01T03:24:10.354Z,2.89
2018-02-01T03:25:10.069Z,2.9
2018-02-01T03:26:10.281Z,2.87
2018-02-01T03:27:10.257Z,2.89
2018-02-01T03:28:10.226Z,2.83
2018-02-01T03:29:09.956Z,2.87
2018-02-01T03:30:10.166Z,2.85
2018-02-01T03:31:09.888Z,2.77
2018-02-01T03:32:10.101Z,2.8
2018-02-01T03:33:09.833Z,2.87
2018-02-01T03:34:10.048Z,2.77
2018-02-01T03:35:10.010Z,2.92
2018-02-01T03:36:09.977Z,2.89
2018-02-01T03:37:09.951Z,2.82
2018-02-01T03:38:09.925Z,2.82
2018-02-01T03:39:09.893Z,2.75
2018-02-01T03:40:09.612Z,2.86
2018-02-01T03:41:09.828Z,2.74
2018-02-01T03:42:09.797Z,2.8
2018-02-01T03:43:09.773Z,2.8
2018-02-01T03:44:09.738Z,2.8
2018-02-01T03:45:09.713Z,2.77
2018-02-01T03:46:09.434Z,2.77
2018-02-01T03:47:09.158Z,2.75
2018-02-01T03:48:09.617Z,2.79
2018-02-01T03:49:09.593Z,2.75
2018-02-01T03:50:09.311Z,2.8
2018-02-01T03:51:09.288Z,2.75
2018-02-01T03:52:09.251Z,2.79
2018-02-01T03:53:09.470Z,2.8
2018-02-01T03:54:09.194Z,2.77
2018-02-01T03:55:09.406Z,2.77
2018-02-01T03:56:09.134Z,2.71
2018-02-01T03:57:09.345Z,2.8
2018-02-01T03:58:09.314Z,2.82
2018-02-01T03:59:08.793Z,2.75
2018-02-01T04:00:09.301Z,2.75
2018-02-01T04:01:09.223Z,2.77
2018-02-01T04:02:09.199Z,2.75
2018-02-01T04:03:08.925Z,2.74
2018-02-01T04:04:08.889Z,2.71
2018-02-01T04:05:09.099Z,2.75
2018-02-01T04:06:08.828Z,2.75
2018-02-01T04:07:08.549Z,2.71
2018-02-01T04:08:08.763Z,2.77
2018-02-01T04:09:08.989Z,2.71
2018-02-01T04:10:08.954Z,2.82
2018-02-01T04:11:08.673Z,2.77
2018-02-01T04:12:08.399Z,2.71
2018-02-01T04:13:08.858Z,2.72
2018-02-01T04:14:08.341Z,2.72
2018-02-01T04:15:08.799Z,2.82
2018-02-01T04:16:08.523Z,2.79
2018-02-01T04:17:08.543Z,2.77
2018-02-01T04:18:08.462Z,2.75
2018-02-01T04:19:08.186Z,2.77
2018-02-01T04:20:08.648Z,2.77
2018-02-01T04:21:08.375Z,2.8
2018-02-01T04:22:08.344Z,2.79
2018-02-01T04:23:08.559Z,2.72
2018-02-01T04:24:08.525Z,2.77
2018-02-01T04:25:08.252Z,2.77
2018-02-01T04:26:08.218Z,2.77
2018-02-01T04:27:08.435Z,2.77
2018-02-01T04:28:08.403Z,2.72
2018-02-01T04:29:08.374Z,2.74
2018-02-01T04:30:08.352Z,2.69
2018-02-01T04:31:08.068Z,2.65
2018-02-01T04:32:08.142Z,2.64
2018-02-01T04:33:08.010Z,2.67
2018-02-01T04:34:08.226Z,2.62
2018-02-01T04:35:08.188Z,2.64
2018-02-01T04:36:08.158Z,2.64
2018-02-01T04:37:08.132Z,2.62
2018-02-01T04:38:08.111Z,2.53
2018-02-01T04:39:07.824Z,2.57
2018-02-01T04:40:07.794Z,2.56
2018-02-01T04:41:08.010Z,2.61
2018-02-01T04:42:07.734Z,2.56
2018-02-01T04:43:07.946Z,2.54
2018-02-01T04:44:07.673Z,2.61
2018-02-01T04:45:07.775Z,2.62
2018-02-01T04:46:07.895Z,2.57
2018-02-01T04:47:07.831Z,2.56
2018-02-01T04:48:07.551Z,2.6
2018-02-01T04:49:07.521Z,2.51
2018-02-01T04:50:07.738Z,2.57
2018-02-01T04:51:07.703Z,2.54
2018-02-01T04:52:07.674Z,2.53
2018-02-01T04:53:07.399Z,2.53
2018-02-01T04:54:07.367Z,2.51
2018-02-01T04:55:07.093Z,2.57
2018-02-01T04:56:07.560Z,2.44
2018-02-01T04:57:07.526Z,2.46
2018-02-01T04:58:07.499Z,2.44
2018-02-01T04:59:07.218Z,2.44
2018-02-01T05:00:07.434Z,2.5
2018-02-01T05:01:07.151Z,2.44
2018-02-01T05:02:07.127Z,2.46
2018-02-01T05:03:07.339Z,2.39
2018-02-01T05:04:07.310Z,2.46
2018-02-01T05:05:07.279Z,2.46
2018-02-01T05:06:07.249Z,2.47
2018-02-01T05:07:07.214Z,2.47
2018-02-01T05:08:06.940Z,2.5
2018-02-01T05:09:06.913Z,2.49
2018-02-01T05:10:06.637Z,2.44
2018-02-01T05:11:06.849Z,2.47
2018-02-01T05:12:06.816Z,2.47
2018-02-01T05:13:06.540Z,2.47
2018-02-01T05:14:06.940Z,2.44
2018-02-01T05:15:06.971Z,2.43
2018-02-01T05:16:06.473Z,2.46
2018-02-01T05:17:06.907Z,2.43
2018-02-01T05:18:06.939Z,2.39
2018-02-01T05:19:06.850Z,2.42
2018-02-01T05:20:06.823Z,2.32
2018-02-01T05:21:06.541Z,2.39
2018-02-01T05:22:06.514Z,2.44
2018-02-01T05:23:06.727Z,2.44
2018-02-01T05:24:06.697Z,2.42
2018-02-01T05:25:06.666Z,2.26
2018-02-01T05:26:06.392Z,2.32
2018-02-01T05:27:06.602Z,2.42
2018-02-01T05:28:06.579Z,2.44
2018-02-01T05:29:06.545Z,2.38
2018-02-01T05:30:06.269Z,2.38
2018-02-01T05:31:06.239Z,2.43
2018-02-01T05:32:06.459Z,2.47
2018-02-01T05:33:06.176Z,2.36
2018-02-01T05:34:06.142Z,2.42
2018-02-01T05:35:05.867Z,2.32
2018-02-01T05:36:06.083Z,2.42
2018-02-01T05:37:05.806Z,2.44
2018-02-01T05:38:06.268Z,2.43
2018-02-01T05:39:05.755Z,2.44
2018-02-01T05:40:06.207Z,2.42
2018-02-01T05:41:05.934Z,2.42
2018-02-01T05:42:05.904Z,2.42
2018-02-01T05:43:06.118Z,2.38
2018-02-01T05:44:06.085Z,2.42
2018-02-01T05:45:05.819Z,2.28
2018-02-01T05:46:06.025Z,2.42
2018-02-01T05:47:05.997Z,2.36
2018-02-01T05:48:05.966Z,2.33
2018-02-01T05:49:05.932Z,2.33
2018-02-01T05:50:05.903Z,2.31
2018-02-01T05:51:05.871Z,2.22
2018-02-01T05:52:05.835Z,2.31
2018-02-01T05:53:05.811Z,2.31
2018-02-01T05:54:05.533Z,2.31
2018-02-01T05:55:05.500Z,2.31
2018-02-01T05:56:05.741Z,2.29
2018-02-01T05:57:05.694Z,2.31
2018-02-01T05:58:05.411Z,2.35
2018-02-01T05:59:05.623Z,2.28
2018-02-01T06:00:05.351Z,2.33
2018-02-01T06:01:05.318Z,2.32
2018-02-01T06:02:05.287Z,2.32
2018-02-01T06:03:05.547Z,2.31
2018-02-01T06:04:05.476Z,2.32
2018-02-01T06:05:05.197Z,2.26
2018-02-01T06:06:05.408Z,2.33
2018-02-01T06:07:05.135Z,2.35
2018-02-01T06:08:05.352Z,2.32
2018-02-01T06:09:05.074Z,2.29
2018-02-01T06:10:05.041Z,2.22
2018-02-01T06:11:05.258Z,2.32
2018-02-01T06:12:05.223Z,2.31
2018-02-01T06:13:05.202Z,2.32
2018-02-01T06:14:06.567Z,2.31
2018-02-01T06:15:05.704Z,2.25
2018-02-01T06:16:05.366Z,2.26
2018-02-01T06:17:05.075Z,2.25
2018-02-01T06:18:04.797Z,2.31
2018-02-01T06:19:05.116Z,2.29
2018-02-01T06:20:04.986Z,2.2
2018-02-01T06:21:04.946Z,2.18
2018-02-01T06:22:04.916Z,2.18
2018-02-01T06:23:04.644Z,2.29
2018-02-01T06:24:04.855Z,2.22
2018-02-01T06:25:04.581Z,2.17
2018-02-01T06:26:04.555Z,2.13
2018-02-01T06:27:04.767Z,2.13
2018-02-01T06:28:04.733Z,2.13
2018-02-01T06:29:04.714Z,2.18
2018-02-01T06:30:04.676Z,2.22
2018-02-01T06:31:04.641Z,2.17
2018-02-01T06:32:04.373Z,2.15
2018-02-01T06:33:04.638Z,2.26
2018-02-01T06:34:04.317Z,2.24
2018-02-01T06:35:04.528Z,2.24
2018-02-01T06:36:04.748Z,2.25
2018-02-01T06:37:04.462Z,2.22
2018-02-01T06:38:04.183Z,2.22
2018-02-01T06:39:04.152Z,2.14
2018-02-01T06:40:04.119Z,2.31
2018-02-01T06:41:04.334Z,2.14
2018-02-01T06:42:04.310Z,2.28
2018-02-01T06:43:04.070Z,2.29
2018-02-01T06:44:04.051Z,2.28
2018-02-01T06:45:04.224Z,2.22
2018-02-01T06:46:03.935Z,2.31
2018-02-01T06:47:04.156Z,2.36
2018-02-01T06:48:04.119Z,2.36
2018-02-01T06:49:04.123Z,2.39
2018-02-01T06:50:03.569Z,2.47
2018-02-01T06:51:03.782Z,2.43
2018-02-01T06:52:03.996Z,2.42
2018-02-01T06:53:03.998Z,2.53
2018-02-01T06:54:03.443Z,2.46
2018-02-01T06:55:03.914Z,2.46
2018-02-01T06:56:03.628Z,2.39
2018-02-01T06:57:03.843Z,2.47
2018-02-01T06:58:03.812Z,2.46
2018-02-01T06:59:03.535Z,2.42
2018-02-01T07:00:03.763Z,2.39
2018-02-01T07:01:03.498Z,2.26
2018-02-01T07:02:03.699Z,2.35
2018-02-01T07:03:03.665Z,2.33
2018-02-01T07:04:03.384Z,2.29
2018-02-01T07:05:03.599Z,2.28
2018-02-01T07:06:03.566Z,2.24
2018-02-01T07:07:03.544Z,2.24
2018-02-01T07:08:03.263Z,2.29
2018-02-01T07:09:03.479Z,2.24
2018-02-01T07:10:03.447Z,2.32
2018-02-01T07:11:03.420Z,2.29
2018-02-01T07:12:03.392Z,2.44
2018-02-01T07:13:03.366Z,2.42
2018-02-01T07:14:03.323Z,2.44
2018-02-01T07:15:04.103Z,2.46
2018-02-01T07:16:04.099Z,2.29
2018-02-01T07:17:03.685Z,2.29
2018-02-01T07:18:03.201Z,2.26
2018-02-01T07:19:02.927Z,2.26
2018-02-01T07:20:03.148Z,2.31
2018-02-01T07:21:03.116Z,2.42
2018-02-01T07:22:03.340Z,2.36
2018-02-01T07:23:03.855Z,2.42
2018-02-01T07:24:03.951Z,2.43
2018-02-01T07:25:03.108Z,2.43
2018-02-01T07:26:03.173Z,2.42
2018-02-01T07:27:02.680Z,2.54
2018-02-01T07:28:02.650Z,2.49
2018-02-01T07:29:02.877Z,2.49
2018-02-01T07:30:02.693Z,2.51
2018-02-01T07:31:02.808Z,2.53
2018-02-01T07:32:02.287Z,2.5
2018-02-01T07:33:02.499Z,2.6
2018-02-01T07:34:02.717Z,2.57
2018-02-01T07:35:02.450Z,2.61
2018-02-01T07:36:02.659Z,2.68
2018-02-01T07:37:02.632Z,2.68
2018-02-01T07:38:02.369Z,2.71
2018-02-01T07:39:02.566Z,2.65
2018-02-01T07:40:02.289Z,2.65
2018-02-01T07:41:02.575Z,2.71
2018-02-01T07:42:02.474Z,2.68
2018-02-01T07:43:02.450Z,2.8
2018-02-01T07:44:02.413Z,2.79
2018-02-01T07:45:02.410Z,2.75
2018-02-01T07:46:02.452Z,2.75
2018-02-01T07:47:02.399Z,2.82
2018-02-01T07:48:02.463Z,2.79
2018-02-01T07:49:02.348Z,2.82
2018-02-01T07:50:02.101Z,2.77
2018-02-01T07:51:02.401Z,2.82
2018-02-01T07:52:01.967Z,2.86
2018-02-01T07:53:02.196Z,2.87
2018-02-01T07:54:02.180Z,3
2018-02-01T07:55:02.093Z,2.93
2018-02-01T07:56:02.051Z,2.98
2018-02-01T07:57:02.034Z,3.01
2018-02-01T07:58:02.303Z,3
2018-02-01T07:59:01.995Z,3.03
2018-02-01T08:00:01.687Z,3.07
2018-02-01T08:01:01.960Z,3
2018-02-01T08:02:01.908Z,3.11
2018-02-01T08:03:01.849Z,3.13
2018-02-01T08:04:01.567Z,3.1
2018-02-01T08:05:01.783Z,3.08
2018-02-01T08:06:01.508Z,3.14
2018-02-01T08:07:01.738Z,3.16
2018-02-01T08:08:01.698Z,3.11
2018-02-01T08:09:01.672Z,3.21
2018-02-01T08:10:01.441Z,3.16
2018-02-01T08:11:01.624Z,3.13
2018-02-01T08:12:01.579Z,3.18
2018-02-01T08:13:01.612Z,3.21
2018-02-01T08:14:01.519Z,3.18
2018-02-01T08:15:01.497Z,3.1
2018-02-01T08:16:01.498Z,3.18
2018-02-01T08:17:01.919Z,3.19
2018-02-01T08:18:01.399Z,3.14
2018-02-01T08:19:01.128Z,3.19
2018-02-01T08:20:01.328Z,3.14
2018-02-01T08:21:01.816Z,3.16
2018-02-01T08:22:02.303Z,3.21
2018-02-01T08:23:01.008Z,3.18
2018-02-01T08:24:00.975Z,3.22
2018-02-01T08:25:02.139Z,3.18
2018-02-01T08:26:03.145Z,3.13
2018-02-01T08:27:02.263Z,3.16
2018-02-01T08:28:01.844Z,3.21
2018-02-01T08:29:01.880Z,3.22
2018-02-01T08:30:01.487Z,3.25
2018-02-01T08:31:01.975Z,3.28
2018-02-01T08:32:01.586Z,3.25
2018-02-01T08:33:01.113Z,3.26
2018-02-01T08:34:00.685Z,3.21
2018-02-01T08:35:00.899Z,3.19
2018-02-01T08:36:00.623Z,3.26
2018-02-01T08:37:00.849Z,3.32
2018-02-01T08:38:00.810Z,3.28
2018-02-01T08:39:00.536Z,3.34
2018-02-01T08:40:00.752Z,3.26
2018-02-01T08:41:00.820Z,3.4
2018-02-01T08:42:00.735Z,3.42
2018-02-01T08:43:00.415Z,3.37
2018-02-01T08:44:00.387Z,3.37
2018-02-01T08:45:00.656Z,3.47
2018-02-01T08:46:00.628Z,3.37
2018-02-01T08:47:00.546Z,3.45
2018-02-01T08:48:00.519Z,3.37
2018-02-01T08:49:00.489Z,3.44
2018-02-01T08:50:00.461Z,3.47
2018-02-01T08:51:01.236Z,3.45
2018-02-01T08:52:00.398Z,3.45
2018-02-01T08:53:00.373Z,3.47
2018-02-01T08:54:00.370Z,3.41
2018-02-01T08:55:00.309Z,3.5
2018-02-01T08:56:00.283Z,3.56
2018-02-01T08:57:00.250Z,3.53
2018-02-01T08:58:00.221Z,3.5
2018-02-01T08:59:00.192Z,3.51
2018-02-01T09:00:00.174Z,3.62
2018-02-01T09:00:59.892Z,3.65
2018-02-01T09:01:59.612Z,3.63
2018-02-01T09:03:00.083Z,3.62
2018-02-01T09:04:00.050Z,3.68
2018-02-01T09:04:59.768Z,3.69
2018-02-01T09:06:00.212Z,3.69
2018-02-01T09:06:59.710Z,3.76
2018-02-01T09:07:59.934Z,3.7
2018-02-01T09:08:59.898Z,3.78
2018-02-01T09:09:59.875Z,3.81
2018-02-01T09:10:59.599Z,3.76
2018-02-01T09:11:59.813Z,3.78
2018-02-01T09:12:59.889Z,3.92
2018-02-01T09:13:59.801Z,3.81
2018-02-01T09:14:59.477Z,3.8
2018-02-01T09:15:59.450Z,3.87
2018-02-01T09:16:59.729Z,3.87
2018-02-01T09:17:59.392Z,3.86
2018-02-01T09:18:59.856Z,3.88
2018-02-01T09:19:59.581Z,3.92
2018-02-01T09:20:59.552Z,3.94
2018-02-01T09:21:59.276Z,3.88
2018-02-01T09:22:59.899Z,4.1
2018-02-01T09:23:59.915Z,4.04
2018-02-01T09:25:00.376Z,4.24
2018-02-01T09:25:59.628Z,4.22
2018-02-01T09:27:00.049Z,4.31
2018-02-01T09:27:59.105Z,4.38
2018-02-01T09:28:59.223Z,4.41
2018-02-01T09:34:04.927Z,4.58
2018-02-01T09:34:59.148Z,4.62
2018-02-01T09:35:59.132Z,4.67
2018-02-01T09:36:58.845Z,4.75
2018-02-01T09:37:58.823Z,4.77
2018-02-01T09:38:58.794Z,4.77
2018-02-01T09:39:58.769Z,4.84
2018-02-01T09:40:59.002Z,4.77
2018-02-01T09:41:58.958Z,4.89
2018-02-01T09:42:58.933Z,4.93
2018-02-01T09:43:58.907Z,4.8
2018-02-01T09:44:58.879Z,4.82
2018-02-01T09:45:58.898Z,4.89
2018-02-01T09:46:58.577Z,4.84
2018-02-01T09:47:58.548Z,4.89
2018-02-01T09:48:58.522Z,4.87
2018-02-01T09:49:58.738Z,4.86
2018-02-01T09:50:58.469Z,4.82
2018-02-01T09:51:58.433Z,4.99
2018-02-01T09:52:58.412Z,5
2018-02-01T09:53:58.634Z,4.99
2018-02-01T09:54:58.601Z,4.96
2018-02-01T09:55:58.568Z,4.99
2018-02-01T09:56:58.549Z,4.94
2018-02-01T09:57:58.527Z,4.99
2018-02-01T09:58:58.719Z,5.07
2018-02-01T09:59:58.460Z,5.07
2018-02-01T10:00:58.771Z,5.1
2018-02-01T10:01:58.410Z,5.1
2018-02-01T10:02:58.391Z,5.11
2018-02-01T10:03:58.107Z,5.18
2018-02-01T10:04:58.079Z,5.12
2018-02-01T10:05:58.302Z,5.1
2018-02-01T10:06:58.279Z,5.12
2018-02-01T10:07:57.755Z,5.21
2018-02-01T10:08:58.638Z,5.33
2018-02-01T10:09:58.140Z,5.29
2018-02-01T10:10:58.170Z,5.32
2018-02-01T10:11:57.896Z,5.33
2018-02-01T10:12:58.130Z,5.38
2018-02-01T10:13:58.087Z,5.38
2018-02-01T10:14:58.062Z,5.39
2018-02-01T10:15:58.041Z,5.44
2018-02-01T10:16:57.766Z,5.44
2018-02-01T10:17:57.896Z,5.47
2018-02-01T10:18:57.463Z,5.47
2018-02-01T10:19:57.935Z,5.46
2018-02-01T10:20:57.908Z,5.41
2018-02-01T10:21:57.876Z,5.39
2018-02-01T10:22:57.857Z,5.46
2018-02-01T10:23:57.582Z,5.44
2018-02-01T10:24:57.848Z,5.44
2018-02-01T10:25:57.280Z,5.46
2018-02-01T10:26:57.778Z,5.41
2018-02-01T10:31:57.373Z,5.39
2018-02-01T10:32:57.590Z,5.35
2018-02-01T10:33:57.564Z,5.35
2018-02-01T10:34:57.306Z,5.43
2018-02-01T10:35:57.511Z,5.43
2018-02-01T10:36:57.502Z,5.51
2018-02-01T10:37:57.209Z,5.43
2018-02-01T10:38:57.180Z,5.51
2018-02-01T10:39:57.417Z,5.43
2018-02-01T10:40:57.377Z,5.38
2018-02-01T10:41:57.447Z,5.32
2018-02-01T10:42:57.080Z,5.3
2018-02-01T10:43:57.050Z,5.44
2018-02-01T10:44:57.275Z,5.41
2018-02-01T10:45:57.248Z,5.53
2018-02-01T10:46:57.220Z,5.48
2018-02-01T10:47:56.945Z,5.59
2018-02-01T10:48:56.685Z,5.59
2018-02-01T10:49:57.140Z,5.57
2018-02-01T10:50:57.119Z,5.61
2018-02-01T10:51:56.845Z,5.69
2018-02-01T10:52:57.077Z,5.68
2018-02-01T10:53:58.089Z,5.72
2018-02-01T10:54:57.014Z,5.8
2018-02-01T10:55:56.985Z,5.8
2018-02-01T10:56:56.956Z,5.73
2018-02-01T10:57:56.934Z,5.87
2018-02-01T10:58:56.668Z,5.9
2018-02-01T10:59:56.429Z,5.89
2018-02-01T11:00:56.856Z,5.9
2018-02-01T11:01:56.587Z,5.97
2018-02-01T11:02:56.557Z,5.89
2018-02-01T11:03:56.779Z,5.9
2018-02-01T11:04:56.312Z,5.86
2018-02-01T11:05:56.724Z,5.87
2018-02-01T11:06:56.760Z,5.84
2018-02-01T11:07:56.679Z,5.82
2018-02-01T11:08:56.653Z,5.73
2018-02-01T11:09:56.378Z,5.79
2018-02-01T11:10:56.612Z,5.72
2018-02-01T11:11:56.568Z,5.69
2018-02-01T11:12:56.305Z,5.64
2018-02-01T11:13:56.520Z,5.61
2018-02-01T11:14:56.498Z,5.62
2018-02-01T11:15:56.217Z,5.53
2018-02-01T11:16:56.194Z,5.65
2018-02-01T11:17:56.415Z,5.61
2018-02-01T11:18:56.401Z,5.54
2018-02-01T11:19:56.562Z,5.68
2018-02-01T11:20:56.088Z,5.75
2018-02-01T11:21:56.309Z,5.8
2018-02-01T11:22:56.032Z,5.76
2018-02-01T11:23:56.254Z,5.75
2018-02-01T11:24:56.230Z,5.72
2018-02-01T11:25:56.230Z,5.76
2018-02-01T11:26:55.930Z,5.8
2018-02-01T11:27:56.289Z,5.8
2018-02-01T11:28:56.309Z,5.75
2018-02-01T11:29:55.764Z,5.82
2018-02-01T11:30:55.899Z,5.86
2018-02-01T11:31:56.044Z,5.89
2018-02-01T11:32:55.775Z,5.82
2018-02-01T11:33:55.999Z,5.82
2018-02-01T11:34:55.721Z,5.9
2018-02-01T11:35:55.946Z,5.83
2018-02-01T11:36:55.670Z,5.84
2018-02-01T11:37:55.988Z,5.91
2018-02-01T11:38:55.858Z,5.93
2018-02-01T11:39:55.834Z,5.98
2018-02-01T11:40:55.562Z,6.04
2018-02-01T11:41:56.452Z,6.05
2018-02-01T11:42:55.757Z,6.05
2018-02-01T11:43:55.898Z,6.09
2018-02-01T11:44:55.768Z,5.99
2018-02-01T11:45:55.681Z,6.07
2018-02-01T11:46:55.657Z,6.11
2018-02-01T11:47:55.383Z,6.12
2018-02-01T11:48:55.357Z,6.14
2018-02-01T11:49:55.578Z,6.16
2018-02-01T11:50:55.308Z,6.14
2018-02-01T11:51:55.528Z,6.12
2018-02-01T11:52:55.502Z,6.24
2018-02-01T11:53:55.474Z,6.16
2018-02-01T11:54:55.206Z,6.12
2018-02-01T11:55:55.432Z,6.24
2018-02-01T11:56:55.501Z,6.24
2018-02-01T11:57:55.479Z,6.24
2018-02-01T11:58:55.436Z,6.26
2018-02-01T11:59:54.879Z,6.2
2018-02-01T12:00:55.481Z,6.14
2018-02-01T12:01:55.140Z,6.12
2018-02-01T12:02:55.153Z,6.07
2018-02-01T12:03:55.259Z,6.04
2018-02-01T12:04:55.196Z,6.01
2018-02-01T12:05:55.167Z,6.05
2018-02-01T12:06:55.142Z,5.98
2018-02-01T12:07:55.115Z,5.99
2018-02-01T12:08:55.122Z,6.04
2018-02-01T12:09:55.064Z,6.05
2018-02-01T12:10:55.038Z,6.12
2018-02-01T12:11:55.012Z,6.12
2018-02-01T12:12:54.986Z,6.09
2018-02-01T12:13:54.964Z,6.14
2018-02-01T12:14:54.691Z,6.19
2018-02-01T12:15:54.660Z,6.28
2018-02-01T12:16:54.634Z,6.28
2018-02-01T12:17:54.862Z,6.27
2018-02-01T12:18:54.874Z,6.28
2018-02-01T12:19:54.809Z,6.27
2018-02-01T12:20:54.778Z,6.31
2018-02-01T12:21:54.755Z,6.28
2018-02-01T12:22:54.732Z,6.28
2018-02-01T12:23:54.212Z,6.31
2018-02-01T12:24:54.679Z,6.3
2018-02-01T12:25:54.410Z,6.35
2018-02-01T12:26:54.625Z,6.3
2018-02-01T12:27:54.358Z,6.44
2018-02-01T12:28:54.574Z,6.42
2018-02-01T12:29:54.306Z,6.38
2018-02-01T12:30:54.530Z,6.28
2018-02-01T12:31:54.254Z,6.26
2018-02-01T12:32:54.226Z,6.31
2018-02-01T12:33:54.818Z,6.26
2018-02-01T12:34:54.214Z,6.3
2018-02-01T12:35:54.151Z,6.31
2018-02-01T12:36:54.382Z,6.3
2018-02-01T12:37:54.345Z,6.35
2018-02-01T12:38:54.098Z,6.31
2018-02-01T12:39:54.298Z,6.35
2018-02-01T12:40:54.272Z,6.35
2018-02-01T12:41:54.242Z,6.3
2018-02-01T12:42:54.222Z,6.41
2018-02-01T12:43:54.202Z,6.44
2018-02-01T12:44:54.613Z,6.39
2018-02-01T12:45:54.791Z,6.45
2018-02-01T12:46:54.183Z,6.45
2018-02-01T12:47:54.404Z,6.42
2018-02-01T12:48:53.825Z,6.3
2018-02-01T12:49:53.801Z,6.33
2018-02-01T12:50:54.020Z,6.3
2018-02-01T12:51:53.742Z,6.19
2018-02-01T12:52:53.716Z,6.09
2018-02-01T12:53:53.938Z,6.05
2018-02-01T12:54:53.916Z,5.99
2018-02-01T12:55:53.900Z,5.99
2018-02-01T12:56:53.612Z,5.84
2018-02-01T12:57:53.586Z,5.86
2018-02-01T12:58:53.807Z,5.73
2018-02-01T12:59:53.778Z,5.64
2018-02-01T13:00:53.514Z,5.59
2018-02-01T13:01:53.482Z,5.64
2018-02-01T13:02:53.706Z,5.53
2018-02-01T13:03:53.445Z,5.47
2018-02-01T13:04:53.649Z,5.41
2018-02-01T13:05:53.633Z,5.44
2018-02-01T13:06:53.600Z,5.53
2018-02-01T13:07:53.570Z,5.53
2018-02-01T13:08:53.539Z,5.5
2018-02-01T13:09:53.516Z,5.5
2018-02-01T13:10:53.489Z,5.51
2018-02-01T13:11:53.468Z,5.5
2018-02-01T13:12:53.484Z,5.54
2018-02-01T13:13:53.411Z,5.64
2018-02-01T13:14:53.386Z,5.47
2018-02-01T13:15:53.114Z,5.51
2018-02-01T13:16:53.335Z,5.47
2018-02-01T13:17:53.152Z,5.51
2018-02-01T13:18:53.281Z,5.54
2018-02-01T13:19:53.250Z,5.5
2018-02-01T13:20:53.285Z,5.47
2018-02-01T13:21:53.196Z,5.38
2018-02-01T13:22:52.927Z,5.35
2018-02-01T13:23:53.144Z,5.35
2018-02-01T13:24:53.116Z,5.32
2018-02-01T13:25:53.097Z,5.28
2018-02-01T13:26:53.066Z,5.33
2018-02-01T13:27:52.795Z,5.18
2018-02-01T13:28:52.771Z,5.26